Terminal Aerodrome Forecast
Issued by NWS Brownsville, TX

Home | Current Version | Previous Version | Text Only | Print | Product List | Glossary On
Versions: 1 2 3 4 5 6 7 8 9 10 11 12 13 14 15 16 17
000
FTUS44 KBRO 031120
TAFMFE
TAF
KMFE 031120Z 0312/0412 32003KT 1/2SM FG OVC003
     FM031500 15008KT 5SM BR BKN010
     FM031700 15023G30KT P6SM BKN030
     FM040100 15015G20KT 6SM BR BKN012=

USA.gov is the U.S. government's official web portal to all federal, state and local government web resources and services.